sensor_id;sensor_type;location;lat;lon;timestamp;pressure;altitude;pressure_sealevel;temperature;humidity
8575;BME280;4325;42.520;27.448;2023-07-29T00:00:46;100815.16;;;20.03;100.00
8575;BME280;4325;42.520;27.448;2023-07-29T00:03:13;100818.13;;;19.98;100.00
8575;BME280;4325;42.520;27.448;2023-07-29T00:05:40;100809.28;;;19.96;100.00
8575;BME280;4325;42.520;27.448;2023-07-29T00:08:09;100814.34;;;19.94;100.00
8575;BME280;4325;42.520;27.448;2023-07-29T00:10:36;100814.06;;;19.95;100.00
8575;BME280;4325;42.520;27.448;2023-07-29T00:13:04;100805.72;;;19.87;100.00
8575;BME280;4325;42.520;27.448;2023-07-29T00:15:31;100806.88;;;19.86;100.00
8575;BME280;4325;42.520;27.448;2023-07-29T00:17:58;100810.16;;;19.88;100.00
8575;BME280;4325;42.520;27.448;2023-07-29T00:20:25;100809.81;;;19.89;100.00
8575;BME280;4325;42.520;27.448;2023-07-29T00:22:52;100808.84;;;19.85;100.00
8575;BME280;4325;42.520;27.448;2023-07-29T00:25:21;100804.28;;;19.81;100.00
8575;BME280;4325;42.520;27.448;2023-07-29T00:27:48;100807.72;;;19.77;100.00
8575;BME280;4325;42.520;27.448;2023-07-29T00:30:15;100806.06;;;19.76;100.00
8575;BME280;4325;42.520;27.448;2023-07-29T00:32:42;100810.84;;;19.76;100.00
8575;BME280;4325;42.520;27.448;2023-07-29T00:35:09;100803.34;;;19.68;100.00
8575;BME280;4325;42.520;27.448;2023-07-29T00:37:36;100803.16;;;19.64;100.00
8575;BME280;4325;42.520;27.448;2023-07-29T00:40:15;100802.50;;;19.67;100.00
8575;BME280;4325;42.520;27.448;2023-07-29T00:42:44;100796.66;;;19.60;100.00
8575;BME280;4325;42.520;27.448;2023-07-29T00:45:11;100794.69;;;19.52;100.00
8575;BME280;4325;42.520;27.448;2023-07-29T00:47:38;100775.78;;;19.37;100.00
8575;BME280;4325;42.520;27.448;2023-07-29T00:50:06;100801.41;;;19.43;100.00
8575;BME280;4325;42.520;27.448;2023-07-29T00:52:33;100790.16;;;19.39;100.00
8575;BME280;4325;42.520;27.448;2023-07-29T00:55:00;100789.97;;;19.36;100.00
8575;BME280;4325;42.520;27.448;2023-07-29T00:57:29;100781.81;;;19.31;100.00
8575;BME280;4325;42.520;27.448;2023-07-29T00:59:59;100788.34;;;19.26;100.00
8575;BME280;4325;42.520;27.448;2023-07-29T01:02:26;100783.63;;;19.27;100.00
8575;BME280;4325;42.520;27.448;2023-07-29T01:04:57;100781.16;;;19.25;100.00
8575;BME280;4325;42.520;27.448;2023-07-29T01:07:30;100786.91;;;19.20;100.00
8575;BME280;4325;42.520;27.448;2023-07-29T01:10:02;100783.13;;;19.16;100.00
8575;BME280;4325;42.520;27.448;2023-07-29T01:12:36;100785.41;;;19.14;100.00
8575;BME280;4325;42.520;27.448;2023-07-29T01:15:13;100784.28;;;19.15;100.00
8575;BME280;4325;42.520;27.448;2023-07-29T01:17:46;100777.91;;;19.15;100.00
8575;BME280;4325;42.520;27.448;2023-07-29T01:20:14;100777.91;;;19.15;100.00
8575;BME280;4325;42.520;27.448;2023-07-29T01:22:42;100779.69;;;19.10;100.00
8575;BME280;4325;42.520;27.448;2023-07-29T01:25:11;100785.59;;;19.09;100.00
8575;BME280;4325;42.520;27.448;2023-07-29T01:27:38;100781.97;;;19.08;100.00
8575;BME280;4325;42.520;27.448;2023-07-29T01:30:06;100783.28;;;19.11;100.00
8575;BME280;4325;42.520;27.448;2023-07-29T01:32:37;100777.25;;;19.09;100.00
8575;BME280;4325;42.520;27.448;2023-07-29T01:35:14;100777.28;;;19.00;100.00
8575;BME280;4325;42.520;27.448;2023-07-29T01:37:46;100773.84;;;18.95;100.00
8575;BME280;4325;42.520;27.448;2023-07-29T01:40:17;100785.75;;;18.87;100.00
8575;BME280;4325;42.520;27.448;2023-07-29T01:42:44;100776.94;;;18.76;100.00
8575;BME280;4325;42.520;27.448;2023-07-29T01:45:12;100784.75;;;18.74;100.00
8575;BME280;4325;42.520;27.448;2023-07-29T01:47:39;100778.22;;;18.79;100.00
8575;BME280;4325;42.520;27.448;2023-07-29T01:50:08;100783.63;;;18.84;100.00
8575;BME280;4325;42.520;27.448;2023-07-29T01:52:35;100776.44;;;18.83;100.00
8575;BME280;4325;42.520;27.448;2023-07-29T01:55:02;100782.00;;;18.83;100.00
8575;BME280;4325;42.520;27.448;2023-07-29T01:57:30;100772.66;;;18.79;100.00
8575;BME280;4325;42.520;27.448;2023-07-29T01:59:57;100778.56;;;18.77;100.00
8575;BME280;4325;42.520;27.448;2023-07-29T02:02:24;100777.72;;;18.77;100.00
8575;BME280;4325;42.520;27.448;2023-07-29T02:04:50;100780.66;;;18.72;100.00
8575;BME280;4325;42.520;27.448;2023-07-29T02:07:18;100779.06;;;18.71;100.00
8575;BME280;4325;42.520;27.448;2023-07-29T02:09:45;100781.78;;;18.62;100.00
8575;BME280;4325;42.520;27.448;2023-07-29T02:12:12;100773.81;;;18.61;100.00
8575;BME280;4325;42.520;27.448;2023-07-29T02:14:40;100774.78;;;18.56;100.00
8575;BME280;4325;42.520;27.448;2023-07-29T02:17:07;100767.28;;;18.57;100.00
8575;BME280;4325;42.520;27.448;2023-07-29T02:19:34;100779.50;;;18.56;100.00
8575;BME280;4325;42.520;27.448;2023-07-29T02:22:01;100787.19;;;18.59;100.00
8575;BME280;4325;42.520;27.448;2023-07-29T02:24:29;100784.09;;;18.60;100.00
8575;BME280;4325;42.520;27.448;2023-07-29T02:26:55;100781.66;;;18.59;100.00
8575;BME280;4325;42.520;27.448;2023-07-29T02:29:22;100772.16;;;18.60;100.00
8575;BME280;4325;42.520;27.448;2023-07-29T02:31:51;100771.38;;;18.59;100.00
8575;BME280;4325;42.520;27.448;2023-07-29T02:34:19;100781.00;;;18.62;100.00
8575;BME280;4325;42.520;27.448;2023-07-29T02:36:45;100785.69;;;18.53;100.00
8575;BME280;4325;42.520;27.448;2023-07-29T02:39:12;100778.69;;;18.47;100.00
8575;BME280;4325;42.520;27.448;2023-07-29T02:41:39;100788.25;;;18.40;100.00
8575;BME280;4325;42.520;27.448;2023-07-29T02:44:06;100788.41;;;18.35;100.00
8575;BME280;4325;42.520;27.448;2023-07-29T02:46:33;100795.59;;;18.36;100.00
8575;BME280;4325;42.520;27.448;2023-07-29T02:49:03;100794.59;;;18.32;100.00
8575;BME280;4325;42.520;27.448;2023-07-29T02:51:30;100794.59;;;18.32;100.00
8575;BME280;4325;42.520;27.448;2023-07-29T02:53:57;100793.94;;;18.35;100.00
8575;BME280;4325;42.520;27.448;2023-07-29T02:56:24;100795.59;;;18.36;100.00
8575;BME280;4325;42.520;27.448;2023-07-29T02:58:51;100793.94;;;18.35;100.00
8575;BME280;4325;42.520;27.448;2023-07-29T03:01:18;100793.44;;;18.33;100.00
8575;BME280;4325;42.520;27.448;2023-07-29T03:03:45;100800.78;;;18.29;100.00
8575;BME280;4325;42.520;27.448;2023-07-29T03:06:14;100803.41;;;18.34;100.00
8575;BME280;4325;42.520;27.448;2023-07-29T03:08:42;100798.50;;;18.40;100.00
8575;BME280;4325;42.520;27.448;2023-07-29T03:11:10;100805.59;;;18.46;100.00
8575;BME280;4325;42.520;27.448;2023-07-29T03:13:37;100800.72;;;18.52;100.00
8575;BME280;4325;42.520;27.448;2023-07-29T03:16:05;100803.81;;;18.59;100.00
8575;BME280;4325;42.520;27.448;2023-07-29T03:18:32;100796.63;;;18.58;100.00
8575;BME280;4325;42.520;27.448;2023-07-29T03:20:59;100807.09;;;18.61;100.00
8575;BME280;4325;42.520;27.448;2023-07-29T03:23:28;100806.59;;;18.59;100.00
8575;BME280;4325;42.520;27.448;2023-07-29T03:26:01;100813.28;;;18.58;100.00
8575;BME280;4325;42.520;27.448;2023-07-29T03:28:36;100816.84;;;18.50;100.00
8575;BME280;4325;42.520;27.448;2023-07-29T03:31:04;100824.03;;;18.51;100.00
8575;BME280;4325;42.520;27.448;2023-07-29T03:33:31;100821.88;;;18.48;100.00
8575;BME280;4325;42.520;27.448;2023-07-29T03:35:58;100812.78;;;18.47;100.00
8575;BME280;4325;42.520;27.448;2023-07-29T03:38:26;100815.00;;;18.45;100.00
8575;BME280;4325;42.520;27.448;2023-07-29T03:40:53;100825.44;;;18.39;100.00
8575;BME280;4325;42.520;27.448;2023-07-29T03:43:20;100816.59;;;18.37;100.00
8575;BME280;4325;42.520;27.448;2023-07-29T03:45:47;100819.56;;;18.32;100.00
8575;BME280;4325;42.520;27.448;2023-07-29T03:48:14;100813.50;;;18.30;100.00
8575;BME280;4325;42.520;27.448;2023-07-29T03:50:41;100818.81;;;18.10;100.00
8575;BME280;4325;42.520;27.448;2023-07-29T03:53:08;100824.81;;;18.03;100.00
8575;BME280;4325;42.520;27.448;2023-07-29T03:55:36;100820.13;;;18.12;100.00
8575;BME280;4325;42.520;27.448;2023-07-29T03:58:03;100825.88;;;18.24;100.00
8575;BME280;4325;42.520;27.448;2023-07-29T04:00:30;100820.50;;;18.28;100.00
8575;BME280;4325;42.520;27.448;2023-07-29T04:02:57;100826.38;;;18.26;100.00
8575;BME280;4325;42.520;27.448;2023-07-29T04:05:24;100832.59;;;18.32;100.00
8575;BME280;4325;42.520;27.448;2023-07-29T04:07:51;100824.94;;;18.37;100.00
8575;BME280;4325;42.520;27.448;2023-07-29T04:10:19;100839.84;;;18.50;100.00
8575;BME280;4325;42.520;27.448;2023-07-29T04:12:47;100840.72;;;18.68;100.00
8575;BME280;4325;42.520;27.448;2023-07-29T04:15:14;100833.22;;;18.77;100.00
8575;BME280;4325;42.520;27.448;2023-07-29T04:17:41;100846.28;;;18.85;100.00
8575;BME280;4325;42.520;27.448;2023-07-29T04:20:09;100835.53;;;18.92;100.00
8575;BME280;4325;42.520;27.448;2023-07-29T04:22:36;100840.44;;;18.95;100.00
8575;BME280;4325;42.520;27.448;2023-07-29T04:25:04;100841.41;;;18.99;100.00
8575;BME280;4325;42.520;27.448;2023-07-29T04:27:31;100838.50;;;19.13;100.00
8575;BME280;4325;42.520;27.448;2023-07-29T04:30:00;100839.81;;;19.15;100.00
8575;BME280;4325;42.520;27.448;2023-07-29T04:32:27;100840.91;;;19.23;100.00
8575;BME280;4325;42.520;27.448;2023-07-29T04:34:53;100836.50;;;19.30;100.00
8575;BME280;4325;42.520;27.448;2023-07-29T04:37:20;100844.66;;;19.35;100.00
8575;BME280;4325;42.520;27.448;2023-07-29T04:39:47;100840.47;;;19.46;100.00
8575;BME280;4325;42.520;27.448;2023-07-29T04:42:14;100840.63;;;19.58;100.00
8575;BME280;4325;42.520;27.448;2023-07-29T04:44:41;100844.22;;;19.59;100.00
8575;BME280;4325;42.520;27.448;2023-07-29T04:47:10;100846.16;;;19.58;100.00
8575;BME280;4325;42.520;27.448;2023-07-29T04:49:37;100849.91;;;19.62;100.00
8575;BME280;4325;42.520;27.448;2023-07-29T04:52:04;100848.22;;;19.78;100.00
8575;BME280;4325;42.520;27.448;2023-07-29T04:54:31;100840.19;;;19.94;100.00
8575;BME280;4325;42.520;27.448;2023-07-29T04:56:58;100844.88;;;20.11;100.00
8575;BME280;4325;42.520;27.448;2023-07-29T04:59:25;100847.16;;;20.26;100.00
8575;BME280;4325;42.520;27.448;2023-07-29T05:01:52;100843.47;;;20.42;100.00
8575;BME280;4325;42.520;27.448;2023-07-29T05:04:21;100855.66;;;20.59;100.00
8575;BME280;4325;42.520;27.448;2023-07-29T05:06:48;100853.16;;;20.66;100.00
8575;BME280;4325;42.520;27.448;2023-07-29T05:09:17;100861.25;;;20.79;100.00
8575;BME280;4325;42.520;27.448;2023-07-29T05:11:44;100864.59;;;20.93;100.00
8575;BME280;4325;42.520;27.448;2023-07-29T05:14:13;100853.25;;;21.07;100.00
8575;BME280;4325;42.520;27.448;2023-07-29T05:16:40;100861.06;;;21.14;100.00
8575;BME280;4325;42.520;27.448;2023-07-29T05:19:06;100857.72;;;21.20;100.00
8575;BME280;4325;42.520;27.448;2023-07-29T05:21:35;100853.06;;;21.12;100.00
8575;BME280;4325;42.520;27.448;2023-07-29T05:24:02;100859.41;;;21.13;100.00
8575;BME280;4325;42.520;27.448;2023-07-29T05:26:29;100870.03;;;21.19;100.00
8575;BME280;4325;42.520;27.448;2023-07-29T05:28:56;100865.41;;;21.23;100.00
8575;BME280;4325;42.520;27.448;2023-07-29T05:31:23;100867.56;;;21.38;100.00
8575;BME280;4325;42.520;27.448;2023-07-29T05:33:50;100865.31;;;21.52;100.00
8575;BME280;4325;42.520;27.448;2023-07-29T05:36:17;100867.69;;;21.62;100.00
8575;BME280;4325;42.520;27.448;2023-07-29T05:38:45;100872.94;;;21.76;100.00
8575;BME280;4325;42.520;27.448;2023-07-29T05:41:12;100871.34;;;21.75;100.00
8575;BME280;4325;42.520;27.448;2023-07-29T05:43:39;100875.38;;;21.65;100.00
8575;BME280;4325;42.520;27.448;2023-07-29T05:46:08;100870.53;;;21.54;100.00
8575;BME280;4325;42.520;27.448;2023-07-29T05:48:35;100876.16;;;21.66;100.00
8575;BME280;4325;42.520;27.448;2023-07-29T05:51:02;100886.00;;;21.84;100.00
8575;BME280;4325;42.520;27.448;2023-07-29T05:53:30;100890.81;;;21.96;97.67
8575;BME280;4325;42.520;27.448;2023-07-29T05:55:59;100888.84;;;21.96;97.53
8575;BME280;4325;42.520;27.448;2023-07-29T05:58:26;100892.56;;;22.00;96.10
8575;BME280;4325;42.520;27.448;2023-07-29T06:00:53;100895.25;;;21.97;94.92
8575;BME280;4325;42.520;27.448;2023-07-29T06:03:20;100887.97;;;22.16;94.08
8575;BME280;4325;42.520;27.448;2023-07-29T06:05:46;100893.59;;;22.41;92.88
8575;BME280;4325;42.520;27.448;2023-07-29T06:08:15;100895.97;;;22.63;90.58
8575;BME280;4325;42.520;27.448;2023-07-29T06:10:42;100886.88;;;22.66;88.62
8575;BME280;4325;42.520;27.448;2023-07-29T06:13:10;100887.09;;;22.61;90.36
8575;BME280;4325;42.520;27.448;2023-07-29T06:15:37;100891.31;;;22.67;89.38
8575;BME280;4325;42.520;27.448;2023-07-29T06:18:04;100893.63;;;22.89;89.30
8575;BME280;4325;42.520;27.448;2023-07-29T06:20:31;100888.94;;;23.05;86.11
8575;BME280;4325;42.520;27.448;2023-07-29T06:22:57;100895.91;;;23.23;85.38
8575;BME280;4325;42.520;27.448;2023-07-29T06:25:24;100895.75;;;23.32;85.14
8575;BME280;4325;42.520;27.448;2023-07-29T06:27:51;100894.59;;;23.45;80.94
8575;BME280;4325;42.520;27.448;2023-07-29T06:30:20;100892.78;;;23.64;79.57
8575;BME280;4325;42.520;27.448;2023-07-29T06:32:46;100885.66;;;23.67;74.48
8575;BME280;4325;42.520;27.448;2023-07-29T06:35:14;100882.50;;;23.69;73.87
8575;BME280;4325;42.520;27.448;2023-07-29T06:37:40;100891.44;;;23.74;72.37
8575;BME280;4325;42.520;27.448;2023-07-29T06:40:08;100884.75;;;23.63;74.86
8575;BME280;4325;42.520;27.448;2023-07-29T06:42:35;100881.34;;;23.70;76.10
8575;BME280;4325;42.520;27.448;2023-07-29T06:45:04;100876.34;;;23.91;76.20
8575;BME280;4325;42.520;27.448;2023-07-29T06:47:32;100874.59;;;24.14;75.80
8575;BME280;4325;42.520;27.448;2023-07-29T06:49:59;100875.22;;;24.39;74.49
8575;BME280;4325;42.520;27.448;2023-07-29T06:52:26;100878.03;;;24.39;76.41
8575;BME280;4325;42.520;27.448;2023-07-29T06:54:53;100879.19;;;24.53;77.04
8575;BME280;4325;42.520;27.448;2023-07-29T06:57:20;100872.06;;;24.56;75.07
8575;BME280;4325;42.520;27.448;2023-07-29T06:59:47;100877.03;;;24.62;74.99
8575;BME280;4325;42.520;27.448;2023-07-29T07:02:14;100870.16;;;24.75;75.30
8575;BME280;4325;42.520;27.448;2023-07-29T07:04:42;100873.63;;;24.84;72.59
8575;BME280;4325;42.520;27.448;2023-07-29T07:07:09;100872.34;;;24.82;72.60
8575;BME280;4325;42.520;27.448;2023-07-29T07:09:36;100868.97;;;24.76;73.11
8575;BME280;4325;42.520;27.448;2023-07-29T07:12:03;100866.38;;;24.83;73.97
8575;BME280;4325;42.520;27.448;2023-07-29T07:14:30;100865.00;;;24.93;71.70
8575;BME280;4325;42.520;27.448;2023-07-29T07:16:57;100867.25;;;24.87;69.89
8575;BME280;4325;42.520;27.448;2023-07-29T07:19:24;100866.25;;;24.96;67.76
8575;BME280;4325;42.520;27.448;2023-07-29T07:21:52;100861.41;;;25.12;66.05
8575;BME280;4325;42.520;27.448;2023-07-29T07:24:19;100855.69;;;25.24;64.36
8575;BME280;4325;42.520;27.448;2023-07-29T07:26:46;100855.56;;;25.36;62.60
8575;BME280;4325;42.520;27.448;2023-07-29T07:29:14;100859.13;;;25.52;61.97
8575;BME280;4325;42.520;27.448;2023-07-29T07:31:50;100854.97;;;25.46;60.45
8575;BME280;4325;42.520;27.448;2023-07-29T07:34:17;100857.03;;;25.30;61.66
8575;BME280;4325;42.520;27.448;2023-07-29T07:36:44;100850.25;;;25.31;61.31
8575;BME280;4325;42.520;27.448;2023-07-29T07:39:13;100849.63;;;25.41;62.71
8575;BME280;4325;42.520;27.448;2023-07-29T07:41:40;100851.59;;;25.56;61.87
8575;BME280;4325;42.520;27.448;2023-07-29T07:44:07;100844.34;;;25.74;62.24
8575;BME280;4325;42.520;27.448;2023-07-29T07:46:34;100847.00;;;25.86;59.74
8575;BME280;4325;42.520;27.448;2023-07-29T07:49:01;100844.91;;;25.83;58.34
8575;BME280;4325;42.520;27.448;2023-07-29T07:51:28;100847.72;;;25.83;57.76
8575;BME280;4325;42.520;27.448;2023-07-29T07:53:55;100842.56;;;25.85;58.39
8575;BME280;4325;42.520;27.448;2023-07-29T07:56:23;100839.88;;;25.92;57.92
8575;BME280;4325;42.520;27.448;2023-07-29T07:58:50;100839.88;;;25.92;57.36
8575;BME280;4325;42.520;27.448;2023-07-29T08:01:17;100841.50;;;26.12;58.40
8575;BME280;4325;42.520;27.448;2023-07-29T08:03:44;100827.25;;;26.25;56.33
8575;BME280;4325;42.520;27.448;2023-07-29T08:06:11;100831.31;;;26.50;54.67
8575;BME280;4325;42.520;27.448;2023-07-29T08:08:38;100832.28;;;26.61;53.43
8575;BME280;4325;42.520;27.448;2023-07-29T08:11:05;100823.91;;;26.64;52.78
8575;BME280;4325;42.520;27.448;2023-07-29T08:13:33;100826.66;;;26.87;52.53
8575;BME280;4325;42.520;27.448;2023-07-29T08:16:00;100826.00;;;26.94;50.93
8575;BME280;4325;42.520;27.448;2023-07-29T08:18:27;100820.06;;;27.02;50.43
8575;BME280;4325;42.520;27.448;2023-07-29T08:20:55;100822.81;;;27.28;49.03
8575;BME280;4325;42.520;27.448;2023-07-29T08:23:24;100823.56;;;27.55;47.22
8575;BME280;4325;42.520;27.448;2023-07-29T08:25:52;100815.41;;;27.80;46.92
8575;BME280;4325;42.520;27.448;2023-07-29T08:28:21;100824.78;;;28.31;43.46
8575;BME280;4325;42.520;27.448;2023-07-29T08:30:50;100809.28;;;29.16;42.17
8575;BME280;4325;42.520;27.448;2023-07-29T08:33:17;100808.03;;;30.32;40.29
8575;BME280;4325;42.520;27.448;2023-07-29T08:35:44;100801.88;;;31.14;37.03
8575;BME280;4325;42.520;27.448;2023-07-29T08:38:11;100798.69;;;32.40;35.43
8575;BME280;4325;42.520;27.448;2023-07-29T08:40:42;100802.81;;;33.17;33.36
8575;BME280;4325;42.520;27.448;2023-07-29T08:43:12;100800.03;;;34.74;31.85
8575;BME280;4325;42.520;27.448;2023-07-29T08:45:41;100799.59;;;36.74;28.34
8575;BME280;4325;42.520;27.448;2023-07-29T08:48:12;100801.09;;;38.15;27.40
8575;BME280;4325;42.520;27.448;2023-07-29T08:50:44;100782.00;;;38.71;26.16
8575;BME280;4325;42.520;27.448;2023-07-29T08:53:11;100796.19;;;38.15;26.48
8575;BME280;4325;42.520;27.448;2023-07-29T08:55:38;100782.72;;;39.19;26.23
8575;BME280;4325;42.520;27.448;2023-07-29T08:58:06;100784.03;;;39.48;26.72
8575;BME280;4325;42.520;27.448;2023-07-29T09:00:34;100793.53;;;40.38;23.26
8575;BME280;4325;42.520;27.448;2023-07-29T09:03:01;100778.91;;;40.45;23.47
8575;BME280;4325;42.520;27.448;2023-07-29T09:05:34;100777.19;;;39.03;24.32
8575;BME280;4325;42.520;27.448;2023-07-29T09:08:02;100777.34;;;39.42;23.45
8575;BME280;4325;42.520;27.448;2023-07-29T09:10:29;100780.66;;;38.97;25.88
8575;BME280;4325;42.520;27.448;2023-07-29T09:12:56;100775.34;;;37.64;24.57
8575;BME280;4325;42.520;27.448;2023-07-29T09:15:27;100783.38;;;37.95;24.82
8575;BME280;4325;42.520;27.448;2023-07-29T09:17:55;100777.53;;;38.23;25.09
8575;BME280;4325;42.520;27.448;2023-07-29T09:20:24;100781.22;;;38.11;23.00
8575;BME280;4325;42.520;27.448;2023-07-29T09:22:53;100790.66;;;37.45;23.88
8575;BME280;4325;42.520;27.448;2023-07-29T09:25:24;100777.09;;;37.75;23.48
8575;BME280;4325;42.520;27.448;2023-07-29T09:27:52;100775.97;;;37.02;24.70
8575;BME280;4325;42.520;27.448;2023-07-29T09:30:19;100776.66;;;37.89;22.48
8575;BME280;4325;42.520;27.448;2023-07-29T09:32:45;100775.13;;;39.46;21.47
8575;BME280;4325;42.520;27.448;2023-07-29T09:35:13;100766.06;;;38.70;20.49
8575;BME280;4325;42.520;27.448;2023-07-29T09:37:39;100773.06;;;39.04;20.93
8575;BME280;4325;42.520;27.448;2023-07-29T09:40:14;100782.63;;;39.22;21.10
8575;BME280;4325;42.520;27.448;2023-07-29T09:42:47;100773.88;;;39.78;19.87
8575;BME280;4325;42.520;27.448;2023-07-29T09:45:19;100765.50;;;41.14;18.59
8575;BME280;4325;42.520;27.448;2023-07-29T09:47:47;100771.22;;;41.41;17.18
8575;BME280;4325;42.520;27.448;2023-07-29T09:50:14;100766.94;;;44.29;16.38
8575;BME280;4325;42.520;27.448;2023-07-29T09:52:42;100758.84;;;44.33;14.56
8575;BME280;4325;42.520;27.448;2023-07-29T09:55:12;100757.97;;;44.27;15.11
8575;BME280;4325;42.520;27.448;2023-07-29T09:57:39;100744.28;;;43.43;15.12
8575;BME280;4325;42.520;27.448;2023-07-29T10:00:07;100753.03;;;42.66;15.15
8575;BME280;4325;42.520;27.448;2023-07-29T10:02:38;100750.31;;;43.01;15.30
8575;BME280;4325;42.520;27.448;2023-07-29T10:05:06;100745.06;;;41.81;16.26
8575;BME280;4325;42.520;27.448;2023-07-29T10:07:34;100740.16;;;41.64;16.31
8575;BME280;4325;42.520;27.448;2023-07-29T10:10:04;100735.94;;;41.83;17.14
8575;BME280;4325;42.520;27.448;2023-07-29T10:12:33;100736.38;;;42.23;17.27
8575;BME280;4325;42.520;27.448;2023-07-29T10:15:02;100730.63;;;42.85;17.43
8575;BME280;4325;42.520;27.448;2023-07-29T10:17:30;100727.50;;;43.42;17.44
8575;BME280;4325;42.520;27.448;2023-07-29T10:19:58;100717.03;;;44.08;17.64
8575;BME280;4325;42.520;27.448;2023-07-29T10:22:27;100718.69;;;45.89;17.30
8575;BME280;4325;42.520;27.448;2023-07-29T10:25:01;100729.22;;;46.99;16.64
8575;BME280;4325;42.520;27.448;2023-07-29T10:27:31;100720.31;;;47.47;15.53
8575;BME280;4325;42.520;27.448;2023-07-29T10:30:02;100723.75;;;46.36;16.95
8575;BME280;4325;42.520;27.448;2023-07-29T10:32:30;100732.78;;;46.61;16.07
8575;BME280;4325;42.520;27.448;2023-07-29T10:34:58;100722.81;;;45.77;16.38
8575;BME280;4325;42.520;27.448;2023-07-29T10:37:25;100717.13;;;45.26;18.04
8575;BME280;4325;42.520;27.448;2023-07-29T10:39:53;100720.91;;;46.00;18.02
8575;BME280;4325;42.520;27.448;2023-07-29T10:42:21;100719.00;;;46.44;17.11
8575;BME280;4325;42.520;27.448;2023-07-29T10:44:52;100715.03;;;45.94;17.33
8575;BME280;4325;42.520;27.448;2023-07-29T10:47:24;100715.97;;;46.76;16.63
8575;BME280;4325;42.520;27.448;2023-07-29T10:49:52;100708.63;;;46.21;16.02
8575;BME280;4325;42.520;27.448;2023-07-29T10:52:32;100701.47;;;45.69;16.79
8575;BME280;4325;42.520;27.448;2023-07-29T10:55:24;100698.88;;;46.78;17.02
8575;BME280;4325;42.520;27.448;2023-07-29T10:57:51;100702.75;;;48.87;15.98
8575;BME280;4325;42.520;27.448;2023-07-29T11:00:20;100697.22;;;50.46;14.97
8575;BME280;4325;42.520;27.448;2023-07-29T11:02:58;100694.75;;;51.82;14.39
8575;BME280;4325;42.520;27.448;2023-07-29T11:05:26;100702.97;;;52.49;14.07
8575;BME280;4325;42.520;27.448;2023-07-29T11:07:53;100699.19;;;53.09;13.79
8575;BME280;4325;42.520;27.448;2023-07-29T11:10:21;100697.19;;;53.86;13.30
8575;BME280;4325;42.520;27.448;2023-07-29T11:12:49;100701.13;;;53.97;12.59
8575;BME280;4325;42.520;27.448;2023-07-29T11:15:26;100701.75;;;54.03;13.45
8575;BME280;4325;42.520;27.448;2023-07-29T11:17:54;100696.34;;;54.50;13.11
8575;BME280;4325;42.520;27.448;2023-07-29T11:20:24;100698.31;;;55.13;13.01
8575;BME280;4325;42.520;27.448;2023-07-29T11:22:51;100701.66;;;55.63;13.03
8575;BME280;4325;42.520;27.448;2023-07-29T11:25:21;100698.91;;;55.95;11.79
8575;BME280;4325;42.520;27.448;2023-07-29T11:27:48;100693.81;;;56.03;12.26
8575;BME280;4325;42.520;27.448;2023-07-29T11:30:15;100694.16;;;56.22;12.43
8575;BME280;4325;42.520;27.448;2023-07-29T11:32:45;100688.50;;;55.94;12.15
8575;BME280;4325;42.520;27.448;2023-07-29T11:35:13;100679.44;;;56.22;12.33
8575;BME280;4325;42.520;27.448;2023-07-29T11:37:42;100692.03;;;56.15;12.10
8575;BME280;4325;42.520;27.448;2023-07-29T11:40:09;100678.19;;;55.78;12.00
8575;BME280;4325;42.520;27.448;2023-07-29T11:42:37;100675.63;;;55.22;11.52
8575;BME280;4325;42.520;27.448;2023-07-29T11:45:05;100674.22;;;54.92;11.88
8575;BME280;4325;42.520;27.448;2023-07-29T11:47:33;100668.22;;;54.47;12.00
8575;BME280;4325;42.520;27.448;2023-07-29T11:50:05;100668.78;;;54.10;11.82
8575;BME280;4325;42.520;27.448;2023-07-29T11:52:35;100662.44;;;53.90;12.73
8575;BME280;4325;42.520;27.448;2023-07-29T11:55:03;100666.19;;;54.34;12.92
8575;BME280;4325;42.520;27.448;2023-07-29T11:57:31;100658.38;;;54.37;13.49
8575;BME280;4325;42.520;27.448;2023-07-29T11:59:58;100660.72;;;54.03;13.29
8575;BME280;4325;42.520;27.448;2023-07-29T12:02:25;100654.78;;;54.16;13.38
8575;BME280;4325;42.520;27.448;2023-07-29T12:04:53;100659.06;;;54.15;12.57
8575;BME280;4325;42.520;27.448;2023-07-29T12:07:21;100653.91;;;54.08;12.87
8575;BME280;4325;42.520;27.448;2023-07-29T12:09:49;100655.94;;;53.84;13.60
8575;BME280;4325;42.520;27.448;2023-07-29T12:12:17;100656.72;;;53.57;13.68
8575;BME280;4325;42.520;27.448;2023-07-29T12:14:44;100652.72;;;53.26;13.66
8575;BME280;4325;42.520;27.448;2023-07-29T12:17:12;100650.66;;;53.34;13.71
8575;BME280;4325;42.520;27.448;2023-07-29T12:19:40;100649.38;;;53.22;13.37
8575;BME280;4325;42.520;27.448;2023-07-29T12:22:08;100654.38;;;53.35;13.88
8575;BME280;4325;42.520;27.448;2023-07-29T12:24:39;100651.91;;;53.46;13.66
8575;BME280;4325;42.520;27.448;2023-07-29T12:27:10;100651.31;;;53.68;14.19
8575;BME280;4325;42.520;27.448;2023-07-29T12:29:40;100646.34;;;53.56;13.43
8575;BME280;4325;42.520;27.448;2023-07-29T12:32:07;100640.41;;;53.20;13.82
8575;BME280;4325;42.520;27.448;2023-07-29T12:34:38;100647.94;;;52.01;13.73
8575;BME280;4325;42.520;27.448;2023-07-29T12:37:06;100638.88;;;51.46;14.32
8575;BME280;4325;42.520;27.448;2023-07-29T12:39:34;100639.94;;;51.17;14.62
8575;BME280;4325;42.520;27.448;2023-07-29T12:42:03;100632.72;;;51.05;14.73
8575;BME280;4325;42.520;27.448;2023-07-29T12:44:32;100628.81;;;50.84;15.04
8575;BME280;4325;42.520;27.448;2023-07-29T12:47:01;100629.06;;;50.86;15.14
8575;BME280;4325;42.520;27.448;2023-07-29T12:49:28;100636.03;;;50.64;15.34
8575;BME280;4325;42.520;27.448;2023-07-29T12:51:56;100631.69;;;50.52;15.78
8575;BME280;4325;42.520;27.448;2023-07-29T12:54:23;100639.03;;;49.73;16.21
8575;BME280;4325;42.520;27.448;2023-07-29T12:56:50;100632.16;;;49.17;16.53
8575;BME280;4325;42.520;27.448;2023-07-29T12:59:18;100634.78;;;47.75;16.32